Time;durP1;ratioP1;P1;durP2;ratioP2;P2;SDS_P1;SDS_P2;PMS_P1;PMS_P2;Temp;Humidity;BMP_temperature;BMP_pressure;BME280_temperature;BME280_humidity;BME280_pressure;Samples;Min_cycle;Max_cycle;Signal;HPM_P1;HPM_P2
2022/01/04 00:01:53;;;;;;;8.95;4.45;;;9.00;91.80;;;;;;4987206;28;20046;-77
2022/01/04 00:04:18;;;;;;;9.13;6.50;;;8.90;91.80;;;;;;4985483;28;20037;-76
2022/01/04 00:06:45;;;;;;;11.23;5.90;;;8.90;91.80;;;;;;4989988;28;20035;-75
2022/01/04 00:09:11;;;;;;;9.43;5.60;;;8.90;91.80;;;;;;4981050;28;20034;-75
2022/01/04 00:11:58;;;;;;;9.48;5.70;;;8.90;91.80;;;;;;4982247;28;20065;-76
2022/01/04 00:14:24;;;;;;;9.85;4.97;;;8.90;91.80;;;;;;4982483;28;20030;-76
2022/01/04 00:16:50;;;;;;;10.00;4.45;;;8.90;91.70;;;;;;4995563;28;20454;-75
2022/01/04 00:19:17;;;;;;;8.43;4.45;;;8.90;91.70;;;;;;4968117;28;20860;-75
2022/01/04 00:21:43;;;;;;;7.50;4.40;;;8.90;91.80;;;;;;4984900;28;20038;-74
2022/01/04 00:24:10;;;;;;;9.73;4.70;;;8.80;91.70;;;;;;4981230;28;20049;-75
2022/01/04 00:26:35;;;;;;;7.95;4.40;;;8.80;91.80;;;;;;4966908;28;20437;-76
2022/01/04 00:29:02;;;;;;;7.78;4.35;;;8.80;91.90;;;;;;4984889;28;20502;-75
2022/01/04 00:31:28;;;;;;;7.15;4.35;;;8.90;91.80;;;;;;4984699;28;20038;-76
2022/01/04 00:33:55;;;;;;;9.13;4.03;;;8.80;91.80;;;;;;4990310;28;20050;-75
2022/01/04 00:36:25;;;;;;;8.65;4.10;;;8.80;91.90;;;;;;4989960;28;20037;-76
2022/01/04 00:38:52;;;;;;;7.68;4.28;;;8.80;91.90;;;;;;4987261;28;20044;-76
2022/01/04 00:41:20;;;;;;;9.77;4.05;;;8.80;91.80;;;;;;4985517;28;20038;-76
2022/01/04 00:43:48;;;;;;;9.55;4.50;;;8.80;91.80;;;;;;4987671;28;20026;-76
2022/01/04 00:46:17;;;;;;;8.25;4.38;;;8.80;91.80;;;;;;4982328;28;20394;-76
2022/01/04 00:51:30;;;;;;;8.60;4.35;;;8.70;91.90;;;;;;4982845;28;20517;-75
2022/01/04 00:53:58;;;;;;;7.15;3.70;;;8.70;91.90;;;;;;4985564;28;20034;-76
2022/01/04 00:56:26;;;;;;;7.38;4.22;;;8.70;91.90;;;;;;4988800;28;20445;-76
2022/01/04 00:58:57;;;;;;;10.77;4.60;;;8.70;91.70;;;;;;4985738;28;20486;-76
2022/01/04 01:01:25;;;;;;;8.07;4.43;;;8.70;91.80;;;;;;4982702;28;20109;-75
2022/01/04 01:03:56;;;;;;;6.93;4.18;;;8.70;91.90;;;;;;4978866;28;20051;-75
2022/01/04 01:06:24;;;;;;;8.73;4.30;;;8.70;91.90;;;;;;4975087;28;20760;-76
2022/01/04 01:08:51;;;;;;;6.95;4.20;;;8.70;92.00;;;;;;4982528;28;20110;-76
2022/01/04 01:11:20;;;;;;;8.07;3.90;;;8.70;92.00;;;;;;4982703;28;20034;-75
2022/01/04 01:13:48;;;;;;;6.30;4.10;;;8.70;92.00;;;;;;4988967;28;20038;-76
2022/01/04 01:16:15;;;;;;;9.02;4.20;;;8.70;91.90;;;;;;4980832;28;20068;-77
2022/01/04 01:18:44;;;;;;;7.93;4.45;;;8.70;92.00;;;;;;4987653;28;20034;-76
2022/01/04 01:21:11;;;;;;;8.02;4.40;;;8.70;91.90;;;;;;4983270;28;20039;-76
2022/01/04 01:23:39;;;;;;;7.15;4.50;;;8.60;91.90;;;;;;4987261;28;20067;-76
2022/01/04 01:26:09;;;;;;;8.70;4.40;;;8.60;91.90;;;;;;4967572;28;20485;-75
2022/01/04 01:28:37;;;;;;;9.75;4.68;;;8.60;91.90;;;;;;4983809;28;20030;-75
2022/01/04 01:31:04;;;;;;;6.95;4.47;;;8.60;91.90;;;;;;4983544;28;20034;-75
2022/01/04 01:33:31;;;;;;;7.63;5.05;;;8.50;91.90;;;;;;4967855;28;20065;-75
2022/01/04 01:36:01;;;;;;;9.82;5.20;;;8.60;92.00;;;;;;4984088;28;20492;-75
2022/01/04 01:38:28;;;;;;;7.97;4.78;;;8.60;92.00;;;;;;4982431;28;20072;-75
2022/01/04 01:40:55;;;;;;;10.60;5.47;;;8.60;92.00;;;;;;4964518;28;20478;-75
2022/01/04 01:43:28;;;;;;;8.57;5.18;;;8.60;92.00;;;;;;4981562;28;20490;-76
2022/01/04 01:45:57;;;;;;;9.30;5.50;;;8.60;92.00;;;;;;4983872;28;20034;-75
2022/01/04 01:48:24;;;;;;;9.95;5.95;;;8.60;91.90;;;;;;4980322;28;20030;-75
2022/01/04 01:50:53;;;;;;;9.77;5.90;;;8.60;92.00;;;;;;4981159;28;20042;-75
2022/01/04 01:53:20;;;;;;;9.88;6.28;;;8.60;91.90;;;;;;4964545;28;20500;-75
2022/01/04 01:55:48;;;;;;;10.75;5.97;;;8.60;91.90;;;;;;4966514;28;20041;-77
2022/01/04 01:58:17;;;;;;;9.07;6.65;;;8.60;91.90;;;;;;4984391;28;20074;-75
2022/01/04 02:00:47;;;;;;;10.35;7.20;;;8.60;91.80;;;;;;4985393;28;20053;-76
2022/01/04 02:03:18;;;;;;;11.73;7.55;;;8.60;91.90;;;;;;4982353;28;20034;-74
2022/01/04 02:05:44;;;;;;;11.18;7.72;;;8.60;91.90;;;;;;4980227;28;20105;-75
2022/01/04 02:08:14;;;;;;;10.68;7.68;;;8.60;91.80;;;;;;4983182;28;20045;-75
2022/01/04 02:10:43;;;;;;;11.27;7.43;;;8.60;91.90;;;;;;4983145;28;20072;-77
2022/01/04 02:13:10;;;;;;;10.45;8.15;;;8.60;91.80;;;;;;4981397;28;20043;-75
2022/01/04 02:15:40;;;;;;;10.40;7.90;;;8.60;91.80;;;;;;4982229;28;20054;-76
2022/01/04 02:18:09;;;;;;;11.88;8.15;;;8.60;91.80;;;;;;4963659;28;20414;-76
2022/01/04 02:20:39;;;;;;;11.48;7.95;;;8.60;92.00;;;;;;4984160;28;20429;-74
2022/01/04 02:23:05;;;;;;;11.70;9.07;;;8.60;92.00;;;;;;4981332;28;20050;-76
2022/01/04 02:25:32;;;;;;;12.90;9.32;;;8.60;92.00;;;;;;4978088;28;20074;-76
2022/01/04 02:27:59;;;;;;;14.32;9.27;;;8.60;92.00;;;;;;4981251;28;20587;-76
2022/01/04 02:30:26;;;;;;;13.00;8.95;;;8.60;92.10;;;;;;4987565;28;20046;-76
2022/01/04 02:32:52;;;;;;;13.10;10.23;;;8.60;92.10;;;;;;4967135;28;20094;-75
2022/01/04 02:35:31;;;;;;;14.40;9.75;;;8.60;92.10;;;;;;4982400;28;20073;-76
2022/01/04 02:38:00;;;;;;;14.32;10.07;;;8.60;92.10;;;;;;4984821;28;20122;-76
2022/01/04 02:40:27;;;;;;;12.80;10.25;;;8.60;92.00;;;;;;4983147;28;20049;-75
2022/01/04 02:42:54;;;;;;;12.63;9.57;;;8.60;92.10;;;;;;4986875;28;20038;-75
2022/01/04 02:45:20;;;;;;;12.48;9.98;;;8.60;92.20;;;;;;4980406;28;20490;-75
2022/01/04 02:47:46;;;;;;;12.88;8.93;;;8.60;92.20;;;;;;4979776;28;20037;-75
2022/01/04 02:50:13;;;;;;;13.23;9.98;;;8.60;92.10;;;;;;4980702;28;20035;-75
2022/01/04 02:52:39;;;;;;;12.70;8.93;;;8.50;92.10;;;;;;4987596;28;20038;-76
2022/01/04 02:55:07;;;;;;;13.73;9.23;;;8.60;92.10;;;;;;4979881;28;20041;-76
2022/01/04 02:57:34;;;;;;;12.60;8.55;;;8.60;92.20;;;;;;4983741;28;20069;-76
2022/01/04 03:00:01;;;;;;;11.68;8.60;;;8.60;92.30;;;;;;4962756;28;20621;-75
2022/01/04 03:02:27;;;;;;;11.60;8.30;;;8.60;92.30;;;;;;4981261;28;20526;-76
2022/01/04 03:04:53;;;;;;;12.45;8.80;;;8.60;92.20;;;;;;4981774;28;20537;-75
2022/01/04 03:07:21;;;;;;;17.40;9.23;;;8.60;92.20;;;;;;4988027;28;20039;-76
2022/01/04 03:09:47;;;;;;;10.82;7.75;;;8.60;92.10;;;;;;4984936;28;20034;-76
2022/01/04 03:12:14;;;;;;;9.93;7.53;;;8.60;92.00;;;;;;4987500;28;20078;-75
2022/01/04 03:14:40;;;;;;;9.38;6.53;;;8.60;91.90;;;;;;4983506;28;20132;-75
2022/01/04 03:17:06;;;;;;;10.32;6.80;;;8.60;91.90;;;;;;4985733;28;20419;-75
2022/01/04 03:19:32;;;;;;;9.57;6.05;;;8.60;92.00;;;;;;4989154;28;20045;-75
2022/01/04 03:21:58;;;;;;;9.07;6.13;;;8.60;91.90;;;;;;4985310;28;20054;-75
2022/01/04 03:24:25;;;;;;;9.63;6.05;;;8.60;91.80;;;;;;4984126;28;20054;-75
2022/01/04 03:26:51;;;;;;;8.57;5.72;;;8.60;91.90;;;;;;4990857;28;20038;-76
2022/01/04 03:29:17;;;;;;;7.63;5.47;;;8.60;91.90;;;;;;4986178;28;20045;-76
2022/01/04 03:31:44;;;;;;;12.00;5.20;;;8.60;91.90;;;;;;4982891;28;20038;-75
2022/01/04 03:34:11;;;;;;;9.40;4.90;;;8.60;91.90;;;;;;4983763;28;20528;-76
2022/01/04 03:36:37;;;;;;;7.60;5.00;;;8.60;91.90;;;;;;4984931;28;20058;-75
2022/01/04 03:39:05;;;;;;;8.13;4.72;;;8.60;91.80;;;;;;4986520;28;20125;-76
2022/01/04 03:41:34;;;;;;;9.13;5.07;;;8.60;91.80;;;;;;4983859;28;20494;-76
2022/01/04 03:44:00;;;;;;;11.25;4.63;;;8.60;91.70;;;;;;4985178;28;20145;-76
2022/01/04 03:46:26;;;;;;;8.93;4.55;;;8.60;91.70;;;;;;4968013;28;20042;-76
2022/01/04 03:48:51;;;;;;;8.35;4.25;;;8.60;91.70;;;;;;4991098;28;20050;-75
2022/01/04 03:51:18;;;;;;;8.13;4.13;;;8.60;91.60;;;;;;4985067;28;20065;-76
2022/01/04 03:53:44;;;;;;;7.43;4.13;;;8.60;91.60;;;;;;4984891;28;20053;-76
2022/01/04 03:56:10;;;;;;;7.60;4.07;;;8.60;91.60;;;;;;4984554;28;20046;-75
2022/01/04 03:58:36;;;;;;;6.60;3.70;;;8.60;91.50;;;;;;4987191;28;20064;-76
2022/01/04 04:01:03;;;;;;;6.57;4.13;;;8.60;91.50;;;;;;4987143;28;20134;-76
2022/01/04 04:03:29;;;;;;;7.78;4.00;;;8.60;91.50;;;;;;4989914;28;20057;-76
2022/01/04 04:05:55;;;;;;;7.78;4.00;;;8.60;91.50;;;;;;4987980;28;20042;-76
2022/01/04 04:08:20;;;;;;;7.28;4.05;;;8.60;91.60;;;;;;4987113;28;21014;-75
2022/01/04 04:10:46;;;;;;;7.05;3.80;;;8.60;91.50;;;;;;4983073;28;20042;-74
2022/01/04 04:13:12;;;;;;;6.15;3.55;;;8.50;91.60;;;;;;4985741;28;20105;-75
2022/01/04 04:15:40;;;;;;;9.07;4.40;;;8.60;91.60;;;;;;4982022;28;20038;-75
2022/01/04 04:18:09;;;;;;;6.68;3.63;;;8.50;91.60;;;;;;4988597;28;20046;-74
2022/01/04 04:20:39;;;;;;;8.18;4.00;;;8.50;91.60;;;;;;4983635;28;20481;-75
2022/01/04 04:23:06;;;;;;;7.85;3.90;;;8.50;91.60;;;;;;4973662;28;20077;-75
2022/01/04 04:25:33;;;;;;;8.10;4.00;;;8.50;91.60;;;;;;4987771;28;20038;-75
2022/01/04 04:27:59;;;;;;;7.95;3.75;;;8.50;91.60;;;;;;4984844;28;20050;-75
2022/01/04 04:30:25;;;;;;;6.63;3.83;;;8.40;91.70;;;;;;4983584;28;20374;-74
2022/01/04 04:32:51;;;;;;;8.13;3.80;;;8.40;91.80;;;;;;4985355;28;20124;-75
2022/01/04 04:35:17;;;;;;;6.28;4.07;;;8.40;91.90;;;;;;4970306;28;20042;-75
2022/01/04 04:37:43;;;;;;;8.95;5.00;;;8.50;91.80;;;;;;4985923;28;20488;-76
2022/01/04 04:40:09;;;;;;;8.18;3.90;;;8.50;91.90;;;;;;4985018;28;20042;-75
2022/01/04 04:42:35;;;;;;;6.60;3.80;;;8.50;91.70;;;;;;4973315;28;20038;-75
2022/01/04 04:45:01;;;;;;;7.65;4.07;;;8.40;91.80;;;;;;4990001;28;20047;-75
2022/01/04 04:47:27;;;;;;;7.03;3.70;;;8.40;91.90;;;;;;4983958;28;20031;-75
2022/01/04 04:49:53;;;;;;;7.13;3.70;;;8.40;91.90;;;;;;4985256;28;20498;-76
2022/01/04 04:52:19;;;;;;;6.65;4.05;;;8.40;91.90;;;;;;4979448;28;20039;-76
2022/01/04 04:54:45;;;;;;;6.28;3.80;;;8.40;91.90;;;;;;4987175;28;20031;-76
2022/01/04 04:57:11;;;;;;;7.32;3.85;;;8.40;91.90;;;;;;4989878;28;20652;-76
2022/01/04 04:59:37;;;;;;;9.57;4.03;;;8.40;91.90;;;;;;4990868;28;20052;-76
2022/01/04 05:02:04;;;;;;;9.23;4.70;;;8.40;91.80;;;;;;4979774;28;20062;-75
2022/01/04 05:04:30;;;;;;;6.38;3.70;;;8.40;91.80;;;;;;4986971;28;20480;-77
2022/01/04 05:06:55;;;;;;;9.23;4.35;;;8.40;91.70;;;;;;4985459;28;20031;-75
2022/01/04 05:09:21;;;;;;;7.47;4.38;;;8.40;91.90;;;;;;4984345;28;20065;-76
2022/01/04 05:11:47;;;;;;;7.63;4.28;;;8.40;91.90;;;;;;4985952;28;20158;-77
2022/01/04 05:14:13;;;;;;;7.82;4.60;;;8.30;91.80;;;;;;4983706;28;20073;-75
2022/01/04 05:16:38;;;;;;;7.22;4.53;;;8.40;91.80;;;;;;4983980;28;20046;-76
2022/01/04 05:19:04;;;;;;;7.25;4.32;;;8.30;91.80;;;;;;4985629;28;20452;-77
2022/01/04 05:21:29;;;;;;;8.65;4.15;;;8.40;91.80;;;;;;4982551;28;20030;-75
2022/01/04 05:23:55;;;;;;;8.05;4.35;;;8.40;91.90;;;;;;4984965;28;20038;-76
2022/01/04 05:26:21;;;;;;;10.10;5.05;;;8.40;91.90;;;;;;4982432;28;20526;-75
2022/01/04 05:28:47;;;;;;;9.90;5.20;;;8.30;91.80;;;;;;4985514;28;20034;-77
2022/01/04 05:31:13;;;;;;;8.65;5.15;;;8.40;91.80;;;;;;4983283;28;20046;-74
2022/01/04 05:33:39;;;;;;;8.43;5.10;;;8.30;91.80;;;;;;4984612;28;20058;-75
2022/01/04 05:36:04;;;;;;;9.93;5.72;;;8.30;92.00;;;;;;4982305;28;20048;-73
2022/01/04 05:38:30;;;;;;;10.77;5.50;;;8.40;91.90;;;;;;4985755;28;20057;-76
2022/01/04 05:40:56;;;;;;;9.57;5.15;;;8.30;92.00;;;;;;4965430;28;20123;-75
2022/01/04 05:43:21;;;;;;;10.18;5.72;;;8.40;91.90;;;;;;4985987;28;20133;-75
2022/01/04 05:45:47;;;;;;;10.38;5.57;;;8.40;91.90;;;;;;4989071;28;20423;-76
2022/01/04 05:48:13;;;;;;;9.73;6.00;;;8.40;92.00;;;;;;4970527;28;20043;-75
2022/01/04 05:50:39;;;;;;;11.32;5.90;;;8.40;91.90;;;;;;4983126;28;20046;-76
2022/01/04 05:53:05;;;;;;;10.95;6.85;;;8.40;91.80;;;;;;4980388;28;20080;-75
2022/01/04 05:55:31;;;;;;;12.43;7.80;;;8.40;91.70;;;;;;4965642;28;20066;-76
2022/01/04 05:57:57;;;;;;;12.02;7.75;;;8.40;91.60;;;;;;4982897;28;20403;-76
2022/01/04 06:00:23;;;;;;;9.85;7.40;;;8.40;91.70;;;;;;4974462;28;20042;-75
2022/01/04 06:02:49;;;;;;;15.52;7.85;;;8.40;91.60;;;;;;4968707;28;20486;-76
2022/01/04 06:05:14;;;;;;;12.88;7.40;;;8.40;91.50;;;;;;4964662;28;20038;-76
2022/01/04 06:07:40;;;;;;;12.00;7.80;;;8.40;91.40;;;;;;4991232;28;20473;-75
2022/01/04 06:10:08;;;;;;;14.23;8.15;;;8.30;91.40;;;;;;4988018;28;20108;-76
2022/01/04 06:15:08;;;;;;;14.88;8.43;;;8.30;91.40;;;;;;4981812;28;20502;-75
2022/01/04 06:17:38;;;;;;;10.32;7.65;;;8.30;91.30;;;;;;4987821;28;20041;-76
2022/01/04 06:20:08;;;;;;;17.90;8.93;;;8.30;91.40;;;;;;4989828;28;20467;-76
2022/01/04 06:22:33;;;;;;;14.85;7.18;;;8.30;91.50;;;;;;4985166;28;20042;-75
2022/01/04 06:24:59;;;;;;;12.32;7.75;;;8.30;91.50;;;;;;4993013;28;20123;-75
2022/01/04 06:27:25;;;;;;;11.98;7.75;;;8.30;91.50;;;;;;4980880;28;20319;-74
2022/01/04 06:29:51;;;;;;;12.88;8.20;;;8.30;91.40;;;;;;4981447;28;20495;-75
2022/01/04 06:32:17;;;;;;;10.35;7.35;;;8.30;91.50;;;;;;4980386;28;20059;-76
2022/01/04 06:34:43;;;;;;;11.93;7.30;;;8.30;91.50;;;;;;4985308;28;20036;-76
2022/01/04 06:37:12;;;;;;;12.88;7.47;;;8.30;91.40;;;;;;4981079;28;20319;-74
2022/01/04 06:39:37;;;;;;;9.80;7.20;;;8.30;91.40;;;;;;4980439;28;20038;-75
2022/01/04 06:42:04;;;;;;;10.43;7.05;;;8.30;91.40;;;;;;4984009;28;20493;-75
2022/01/04 06:44:31;;;;;;;11.55;6.70;;;8.20;91.30;;;;;;4980882;28;20303;-76
2022/01/04 06:46:57;;;;;;;11.13;6.30;;;8.20;91.40;;;;;;4963451;28;20065;-75
2022/01/04 06:49:23;;;;;;;10.52;6.68;;;8.30;91.30;;;;;;4989904;28;20790;-75
2022/01/04 06:51:49;;;;;;;12.02;6.28;;;8.30;91.30;;;;;;4980261;28;20050;-76
2022/01/04 06:54:17;;;;;;;11.93;6.65;;;8.30;91.40;;;;;;4987627;28;20045;-76
2022/01/04 06:56:43;;;;;;;11.40;6.65;;;8.30;91.30;;;;;;4985069;28;20037;-75
2022/01/04 06:59:08;;;;;;;11.40;6.50;;;8.30;91.30;;;;;;4982334;28;20080;-77
2022/01/04 07:01:35;;;;;;;10.98;6.35;;;8.30;91.20;;;;;;4982391;28;20472;-75
2022/01/04 07:04:02;;;;;;;13.95;7.10;;;8.20;91.30;;;;;;4967681;28;20372;-76
2022/01/04 07:06:27;;;;;;;14.95;10.88;;;8.20;91.40;;;;;;4981099;28;20057;-76
2022/01/04 07:08:53;;;;;;;18.63;15.10;;;8.20;91.50;;;;;;4981650;28;20038;-75
2022/01/04 07:11:19;;;;;;;28.13;22.05;;;8.10;91.50;;;;;;4983185;28;20470;-75
2022/01/04 07:13:45;;;;;;;13.15;10.90;;;8.10;91.60;;;;;;4986903;28;20042;-76
2022/01/04 07:16:11;;;;;;;16.65;14.07;;;8.10;91.60;;;;;;4984554;28;20078;-75
2022/01/04 07:18:36;;;;;;;20.48;17.50;;;8.10;91.60;;;;;;4987555;28;20136;-75
2022/01/04 07:21:03;;;;;;;14.52;10.65;;;8.10;91.50;;;;;;4982729;28;20475;-74
2022/01/04 07:23:29;;;;;;;13.30;7.00;;;8.10;91.60;;;;;;4979883;28;20042;-74
2022/01/04 07:25:55;;;;;;;11.20;7.22;;;8.10;91.60;;;;;;4983649;28;20583;-76
2022/01/04 07:28:21;;;;;;;12.32;7.07;;;8.10;91.70;;;;;;4983650;28;20534;-75
2022/01/04 07:30:47;;;;;;;8.90;6.55;;;8.10;91.70;;;;;;4980962;28;20154;-75
2022/01/04 07:33:14;;;;;;;11.05;6.90;;;8.10;91.70;;;;;;4979417;28;20371;-75
2022/01/04 07:35:40;;;;;;;11.13;7.32;;;8.10;91.80;;;;;;4986531;28;20505;-73
2022/01/04 07:38:06;;;;;;;11.73;6.80;;;8.10;91.90;;;;;;4983483;28;20038;-75
2022/01/04 07:40:31;;;;;;;10.32;6.93;;;8.10;91.80;;;;;;4985847;28;20517;-75
2022/01/04 07:43:00;;;;;;;10.77;7.07;;;8.20;91.70;;;;;;4980641;28;20137;-75
2022/01/04 07:45:34;;;;;;;10.75;7.10;;;8.20;91.60;;;;;;4983591;28;20065;-75
2022/01/04 07:48:00;;;;;;;11.23;7.00;;;8.20;91.60;;;;;;4963505;28;20569;-74
2022/01/04 07:50:27;;;;;;;10.40;6.80;;;8.20;91.60;;;;;;4991837;28;20444;-77
2022/01/04 07:52:53;;;;;;;11.90;7.78;;;8.20;91.60;;;;;;4986401;28;20050;-75
2022/01/04 07:55:19;;;;;;;12.25;7.70;;;8.20;91.70;;;;;;4978146;28;20042;-75
2022/01/04 07:57:45;;;;;;;11.00;7.72;;;8.10;91.70;;;;;;4966601;28;20038;-75
2022/01/04 08:00:14;;;;;;;13.60;8.45;;;8.20;91.70;;;;;;4980910;28;20530;-75
2022/01/04 08:02:41;;;;;;;11.98;7.93;;;8.20;91.60;;;;;;4979776;28;20046;-75
2022/01/04 08:05:08;;;;;;;12.27;7.60;;;8.20;91.70;;;;;;4978648;28;20046;-76
2022/01/04 08:07:34;;;;;;;12.15;8.10;;;8.10;91.70;;;;;;4979475;28;20370;-76
2022/01/04 08:10:00;;;;;;;11.38;7.95;;;8.10;91.70;;;;;;4977146;28;20042;-75
2022/01/04 08:12:26;;;;;;;11.43;7.45;;;8.20;91.70;;;;;;4961806;28;20415;-76
2022/01/04 08:14:52;;;;;;;11.65;7.55;;;8.20;91.60;;;;;;4980023;28;20604;-75
2022/01/04 08:17:18;;;;;;;10.85;7.72;;;8.20;91.60;;;;;;4977089;28;20034;-76
2022/01/04 08:19:43;;;;;;;15.00;8.45;;;8.20;91.50;;;;;;4979547;28;20034;-76
2022/01/04 08:22:09;;;;;;;12.18;8.27;;;8.20;91.50;;;;;;4982149;28;20047;-75
2022/01/04 08:24:35;;;;;;;13.10;8.55;;;8.20;91.60;;;;;;4982785;28;20065;-76
2022/01/04 08:27:00;;;;;;;12.30;9.15;;;8.30;91.60;;;;;;4983196;28;20111;-75
2022/01/04 08:29:26;;;;;;;12.45;8.48;;;8.30;91.50;;;;;;4966974;28;20544;-76
2022/01/04 08:31:52;;;;;;;13.10;8.35;;;8.40;91.40;;;;;;4966819;28;20498;-75
2022/01/04 08:34:18;;;;;;;12.45;8.30;;;8.40;91.50;;;;;;4966555;28;20039;-76
2022/01/04 08:36:44;;;;;;;14.52;8.95;;;8.40;91.30;;;;;;4983481;28;20030;-76
2022/01/04 08:39:14;;;;;;;13.80;8.80;;;8.50;91.20;;;;;;4963015;28;20042;-75
2022/01/04 08:41:49;;;;;;;15.95;9.15;;;8.50;91.20;;;;;;4982620;28;20516;-75
2022/01/04 08:44:15;;;;;;;;;;;8.50;91.20;;;;;;4982704;28;20041;-74
2022/01/04 08:46:40;;;;;;;12.18;8.85;;;8.50;91.10;;;;;;4979676;28;19917;-75
2022/01/04 08:49:07;;;;;;;13.93;9.35;;;8.50;91.10;;;;;;4963110;28;20838;-72
2022/01/04 08:51:34;;;;;;;14.15;9.05;;;8.50;91.00;;;;;;4981887;28;20401;-73
2022/01/04 08:54:00;;;;;;;13.38;9.07;;;8.50;91.00;;;;;;4983327;28;20050;-72
2022/01/04 08:56:26;;;;;;;13.45;9.52;;;8.50;90.90;;;;;;4983077;28;20034;-73
2022/01/04 08:58:52;;;;;;;16.65;10.57;;;8.50;90.80;;;;;;4991626;28;20046;-74
2022/01/04 09:01:18;;;;;;;14.35;9.80;;;8.50;90.80;;;;;;4986326;28;20065;-74
2022/01/04 09:03:44;;;;;;;15.93;9.73;;;8.50;90.90;;;;;;4985175;28;20398;-73
2022/01/04 09:06:10;;;;;;;14.25;9.18;;;8.50;90.90;;;;;;4984699;28;20034;-73
2022/01/04 09:08:36;;;;;;;11.98;8.55;;;8.50;90.80;;;;;;4983177;28;20042;-74
2022/01/04 09:11:02;;;;;;;14.05;8.82;;;8.50;90.90;;;;;;4982845;28;20065;-73
2022/01/04 09:13:35;;;;;;;10.95;8.20;;;8.50;90.80;;;;;;4982266;28;20088;-73
2022/01/04 09:18:46;;;;;;;11.02;8.15;;;8.60;90.60;;;;;;4980634;28;20085;-72
2022/01/04 09:21:24;;;;;;;12.18;8.07;;;8.60;90.70;;;;;;4967650;28;20556;-71
2022/01/04 09:23:51;;;;;;;12.07;8.07;;;8.60;90.80;;;;;;4961341;28;20034;-73
2022/01/04 09:26:17;;;;;;;9.85;6.38;;;8.60;90.80;;;;;;4979346;28;20726;-73
2022/01/04 09:28:44;;;;;;;12.27;6.90;;;8.60;90.70;;;;;;4981023;28;20030;-74
2022/01/04 09:31:10;;;;;;;13.88;7.32;;;8.60;90.70;;;;;;4975359;28;20037;-72
2022/01/04 09:33:36;;;;;;;12.30;6.88;;;8.60;90.60;;;;;;4984843;28;20085;-73
2022/01/04 09:36:04;;;;;;;10.80;7.20;;;8.60;90.60;;;;;;4984529;28;20133;-73
2022/01/04 09:38:29;;;;;;;10.73;6.28;;;8.70;90.50;;;;;;4976101;28;20050;-72
2022/01/04 09:40:55;;;;;;;11.73;6.43;;;8.70;90.30;;;;;;4980526;28;20105;-72
2022/01/04 09:43:22;;;;;;;12.00;6.60;;;8.80;90.30;;;;;;4978795;28;20038;-74
2022/01/04 09:45:48;;;;;;;12.40;7.05;;;8.80;90.00;;;;;;4978662;28;20038;-76
2022/01/04 09:48:15;;;;;;;11.20;6.28;;;8.80;90.10;;;;;;4979595;28;20038;-73
2022/01/04 09:50:42;;;;;;;10.70;6.45;;;8.70;90.10;;;;;;4980282;28;20047;-75
2022/01/04 09:53:19;;;;;;;11.05;6.88;;;8.80;89.90;;;;;;4977389;28;20042;-74
2022/01/04 09:55:48;;;;;;;12.63;6.85;;;8.80;89.90;;;;;;4980211;28;20038;-71
2022/01/04 09:58:14;;;;;;;9.43;6.53;;;8.80;89.90;;;;;;4960350;28;20194;-74
2022/01/04 10:00:40;;;;;;;10.55;6.47;;;8.80;89.90;;;;;;4979407;28;20536;-75
2022/01/04 10:03:29;;;;;;;11.93;7.20;;;8.90;89.80;;;;;;4982004;28;20046;-74
2022/01/04 10:06:16;;;;;;;10.50;7.10;;;8.90;89.80;;;;;;4982490;28;20038;-74
2022/01/04 10:08:56;;;;;;;11.70;6.78;;;9.10;89.80;;;;;;4976916;28;20151;-73
2022/01/04 10:11:36;;;;;;;11.57;6.40;;;9.10;89.50;;;;;;4979790;28;21115;-74
2022/01/04 10:14:30;;;;;;;13.52;7.70;;;9.10;89.20;;;;;;4978528;28;20133;-73
2022/01/04 10:17:04;;;;;;;13.13;6.85;;;9.30;89.10;;;;;;4979500;28;20069;-76
2022/01/04 10:19:34;;;;;;;9.98;6.38;;;9.30;88.70;;;;;;4980332;28;20043;-74
2022/01/04 10:22:17;;;;;;;10.35;6.72;;;9.30;88.70;;;;;;4979563;28;20049;-74
2022/01/04 10:24:46;;;;;;;9.70;6.28;;;9.30;88.80;;;;;;4982025;28;20145;-74
2022/01/04 10:27:23;;;;;;;10.30;6.60;;;9.30;88.80;;;;;;4977650;28;20056;-73
2022/01/04 10:30:07;;;;;;;12.15;6.65;;;9.40;88.70;;;;;;4976277;28;20090;-74
2022/01/04 10:32:45;;;;;;;12.32;7.07;;;9.40;88.70;;;;;;4985100;28;20264;-76
2022/01/04 10:35:18;;;;;;;12.18;6.45;;;9.50;88.60;;;;;;4985397;28;20042;-75
2022/01/04 10:37:44;;;;;;;12.07;6.63;;;9.40;88.50;;;;;;4962672;28;20030;-75
2022/01/04 10:40:10;;;;;;;11.07;6.55;;;9.50;88.80;;;;;;4980797;28;20073;-73
2022/01/04 10:42:36;;;;;;;10.75;6.55;;;9.50;88.70;;;;;;4978602;28;20066;-74
2022/01/04 10:45:23;;;;;;;12.90;7.32;;;9.50;88.60;;;;;;4981744;28;20092;-73
2022/01/04 10:47:49;;;;;;;11.43;6.65;;;9.50;88.50;;;;;;4981615;28;20073;-74
2022/01/04 10:50:32;;;;;;;14.57;7.90;;;9.50;88.40;;;;;;4983391;28;20113;-73
2022/01/04 10:52:59;;;;;;;12.93;7.45;;;9.50;88.50;;;;;;4971440;28;20085;-73
2022/01/04 10:55:35;;;;;;;11.98;6.85;;;9.50;88.50;;;;;;4965491;28;20039;-73
2022/01/04 10:58:03;;;;;;;11.43;6.90;;;9.50;88.40;;;;;;4984173;28;20034;-73
2022/01/04 11:00:29;;;;;;;12.57;6.93;;;9.50;88.30;;;;;;4962083;28;20081;-72
2022/01/04 11:02:57;;;;;;;12.55;8.02;;;9.50;88.30;;;;;;4980456;28;20061;-73
2022/01/04 11:05:24;;;;;;;11.60;7.97;;;9.50;88.40;;;;;;4978124;28;20153;-73
2022/01/04 11:08:12;;;;;;;16.15;9.82;;;9.50;88.70;;;;;;4981200;28;20038;-72
2022/01/04 11:10:38;;;;;;;12.52;8.90;;;9.50;88.80;;;;;;4978417;28;20051;-72
2022/01/04 11:13:04;;;;;;;14.70;9.32;;;9.40;89.20;;;;;;4957767;28;20053;-72
2022/01/04 11:15:31;;;;;;;13.07;9.70;;;9.50;89.30;;;;;;4978965;28;20049;-73
2022/01/04 11:17:57;;;;;;;15.73;9.88;;;9.40;89.20;;;;;;4979080;28;20126;-73
2022/01/04 11:20:23;;;;;;;18.92;10.55;;;9.50;89.40;;;;;;4976873;28;20126;-71
2022/01/04 11:22:50;;;;;;;15.27;10.18;;;9.50;89.30;;;;;;4977826;28;20042;-70
2022/01/04 11:25:22;;;;;;;15.98;9.98;;;9.60;89.20;;;;;;4974032;28;20048;-72
2022/01/04 11:27:48;;;;;;;15.55;11.02;;;9.60;89.00;;;;;;4969163;28;21263;-71
2022/01/04 11:30:29;;;;;;;15.43;10.65;;;9.60;88.90;;;;;;4972571;28;20478;-72
2022/01/04 11:33:02;;;;;;;19.83;12.38;;;9.60;88.90;;;;;;4972891;28;20047;-73
2022/01/04 11:35:29;;;;;;;17.48;11.63;;;9.70;88.90;;;;;;4969426;28;20588;-73
2022/01/04 11:38:00;;;;;;;17.05;10.68;;;9.60;88.80;;;;;;4972763;28;20042;-72
2022/01/04 11:40:41;;;;;;;18.48;11.50;;;9.60;89.10;;;;;;4976552;28;20134;-72
2022/01/04 11:43:32;;;;;;;16.25;9.90;;;9.70;89.00;;;;;;4947343;28;20066;-72
2022/01/04 11:45:58;;;;;;;15.60;10.60;;;9.70;88.60;;;;;;4951236;28;20049;-73
2022/01/04 11:48:35;;;;;;;12.80;9.35;;;9.70;88.80;;;;;;4971027;28;20042;-73
2022/01/04 11:51:07;;;;;;;13.55;9.35;;;9.70;88.20;;;;;;4969194;28;20152;-73
2022/01/04 11:53:35;;;;;;;12.77;8.57;;;9.70;88.20;;;;;;4951159;28;20363;-73
2022/01/04 11:56:04;;;;;;;13.23;8.38;;;9.80;88.10;;;;;;4970147;28;20038;-72
2022/01/04 11:58:50;;;;;;;11.15;7.18;;;9.80;87.70;;;;;;4973996;28;20061;-73
2022/01/04 12:01:17;;;;;;;11.50;7.22;;;9.90;87.70;;;;;;4975749;28;20052;-72
2022/01/04 12:03:47;;;;;;;13.93;8.20;;;9.80;87.30;;;;;;4974622;28;20049;-72
2022/01/04 12:06:15;;;;;;;12.40;6.85;;;9.80;87.00;;;;;;4978736;28;20105;-72
2022/01/04 12:08:52;;;;;;;12.35;6.45;;;9.70;87.20;;;;;;4975795;28;20100;-72
2022/01/04 12:11:29;;;;;;;12.32;6.63;;;9.70;87.00;;;;;;4975521;28;20034;-72
2022/01/04 12:13:59;;;;;;;13.90;6.85;;;9.60;87.20;;;;;;4977233;28;20084;-73
2022/01/04 12:16:31;;;;;;;10.82;6.68;;;9.50;86.90;;;;;;4974348;28;20039;-75
2022/01/04 12:18:58;;;;;;;11.77;6.32;;;9.50;87.50;;;;;;4977465;28;20050;-73
2022/01/04 12:21:29;;;;;;;12.30;6.20;;;9.40;87.80;;;;;;4978275;28;20045;-72
2022/01/04 12:23:57;;;;;;;10.23;5.18;;;9.20;88.40;;;;;;4970840;28;20080;-73
2022/01/04 12:26:26;;;;;;;8.13;4.93;;;9.10;88.80;;;;;;4973217;28;20054;-73
2022/01/04 12:28:55;;;;;;;9.40;5.13;;;9.10;89.50;;;;;;4971005;28;20051;-73
2022/01/04 12:31:23;;;;;;;10.75;5.78;;;9.00;89.70;;;;;;4952297;28;20038;-73
2022/01/04 12:33:51;;;;;;;15.05;7.13;;;9.00;90.00;;;;;;4960318;28;20050;-73
2022/01/04 12:36:34;;;;;;;12.77;6.85;;;9.10;90.20;;;;;;4975401;28;20478;-74
2022/01/04 12:39:05;;;;;;;12.93;7.50;;;9.10;90.30;;;;;;4955323;28;20039;-72
2022/01/04 12:41:31;;;;;;;11.80;7.85;;;9.10;90.30;;;;;;4983318;28;20062;-73
2022/01/04 12:43:57;;;;;;;10.13;6.78;;;9.10;90.30;;;;;;4983505;28;20463;-73
2022/01/04 12:46:28;;;;;;;10.27;7.20;;;9.10;90.20;;;;;;4959189;28;20099;-71
2022/01/04 12:48:56;;;;;;;12.50;7.55;;;9.10;90.20;;;;;;4983113;28;20121;-74
2022/01/04 12:51:33;;;;;;;11.43;7.82;;;9.20;90.10;;;;;;4978485;28;20509;-73
2022/01/04 12:54:06;;;;;;;11.55;7.82;;;9.20;90.10;;;;;;4982537;28;20058;-73
2022/01/04 12:56:38;;;;;;;13.85;8.50;;;9.20;90.10;;;;;;4982521;28;20038;-72
2022/01/04 12:59:04;;;;;;;13.05;9.02;;;9.30;90.10;;;;;;4984377;28;20042;-72
2022/01/04 13:01:31;;;;;;;16.90;10.55;;;9.30;90.00;;;;;;4982803;28;20041;-72
2022/01/04 13:03:59;;;;;;;15.00;8.27;;;9.20;90.20;;;;;;4981086;28;20491;-71